createdAt,value
2019-01-06T00:02:49.213Z,2
2019-01-06T00:07:51.681Z,1
2019-01-06T00:12:54.134Z,1
2019-01-06T00:17:56.592Z,1
2019-01-06T00:22:59.097Z,1
2019-01-06T00:28:01.594Z,2
2019-01-06T00:33:03.983Z,3
2019-01-06T00:38:06.421Z,7
2019-01-06T00:43:08.883Z,6
2019-01-06T00:48:11.331Z,5
2019-01-06T00:53:13.794Z,4
2019-01-06T00:58:16.300Z,4
2019-01-06T01:03:18.701Z,5
2019-01-06T01:08:21.173Z,4
2019-01-06T01:13:23.635Z,6
2019-01-06T01:18:26.081Z,6
2019-01-06T01:23:28.539Z,6
2019-01-06T01:28:30.992Z,7
2019-01-06T01:33:33.442Z,9
2019-01-06T01:38:35.915Z,6
2019-01-06T01:43:38.454Z,8
2019-01-06T01:48:40.847Z,6
2019-01-06T01:53:43.290Z,4
2019-01-06T01:58:45.745Z,3
2019-01-06T02:03:48.185Z,4
2019-01-06T02:08:50.652Z,3
2019-01-06T02:13:53.104Z,3
2019-01-06T02:18:55.574Z,2
2019-01-06T02:23:58.007Z,2
2019-01-06T02:29:00.515Z,2
2019-01-06T02:34:02.922Z,1
2019-01-06T02:39:05.385Z,2
2019-01-06T02:44:07.840Z,1
2019-01-06T02:49:10.307Z,1
2019-01-06T02:54:12.789Z,1
2019-01-06T02:59:15.225Z,1
2019-01-06T03:04:17.665Z,1
2019-01-06T03:09:20.133Z,1
2019-01-06T03:14:22.614Z,1
2019-01-06T03:19:25.068Z,1
2019-01-06T03:24:27.513Z,1
2019-01-06T03:29:29.977Z,1
2019-01-06T03:34:32.511Z,1
2019-01-06T03:39:34.897Z,1
2019-01-06T03:44:37.373Z,1
2019-01-06T03:49:39.834Z,1
2019-01-06T03:54:42.291Z,1
2019-01-06T03:59:44.774Z,1
2019-01-06T04:04:47.210Z,1
2019-01-06T04:09:49.676Z,0
2019-01-06T04:14:52.133Z,1
2019-01-06T04:19:54.589Z,1
2019-01-06T04:24:57.047Z,0
2019-01-06T04:29:59.525Z,0
2019-01-06T04:35:02.119Z,0
2019-01-06T04:40:04.442Z,0
2019-01-06T04:45:06.912Z,0
2019-01-06T04:50:09.383Z,1
2019-01-06T04:55:11.840Z,1
2019-01-06T05:00:14.319Z,1
2019-01-06T05:05:16.805Z,0
2019-01-06T05:10:19.194Z,0
2019-01-06T05:15:21.668Z,1
2019-01-06T05:20:24.138Z,1
2019-01-06T05:25:26.675Z,1
2019-01-06T05:30:29.095Z,0
2019-01-06T05:35:31.488Z,0
2019-01-06T05:40:33.999Z,1
2019-01-06T05:45:36.429Z,0
2019-01-06T05:50:38.945Z,0
2019-01-06T05:55:41.421Z,1
2019-01-06T06:00:43.927Z,1
2019-01-06T06:05:46.323Z,0
2019-01-06T06:10:48.758Z,1
2019-01-06T06:15:51.185Z,1
2019-01-06T06:20:53.635Z,1
2019-01-06T06:25:56.100Z,1
2019-01-06T06:30:58.609Z,1
2019-01-06T06:36:01.025Z,2
2019-01-06T06:41:03.485Z,2
2019-01-06T06:46:05.964Z,4
2019-01-06T06:51:08.409Z,3
2019-01-06T06:56:10.912Z,4
2019-01-06T07:01:13.328Z,4
2019-01-06T07:06:15.818Z,4
2019-01-06T07:11:18.240Z,4
2019-01-06T07:16:20.711Z,4
2019-01-06T07:21:23.159Z,4
2019-01-06T07:26:25.748Z,3
2019-01-06T07:31:28.108Z,5
2019-01-06T07:36:30.537Z,4
2019-01-06T07:41:33.064Z,5
2019-01-06T07:46:35.452Z,5
2019-01-06T07:51:37.904Z,4
2019-01-06T07:56:40.385Z,5
2019-01-06T08:01:42.888Z,4
2019-01-06T08:06:45.286Z,4
2019-01-06T08:11:47.924Z,5
2019-01-06T08:16:50.222Z,4
2019-01-06T08:21:52.645Z,3
2019-01-06T08:26:55.113Z,4
2019-01-06T08:31:57.568Z,4
2019-01-06T08:37:00.051Z,5
2019-01-06T08:42:02.511Z,4
2019-01-06T08:47:04.956Z,4
2019-01-06T08:52:07.449Z,4
2019-01-06T08:57:09.858Z,4
2019-01-06T09:02:12.328Z,4
2019-01-06T09:07:14.775Z,4
2019-01-06T09:12:17.263Z,4
2019-01-06T09:17:19.707Z,4
2019-01-06T09:22:22.193Z,2
2019-01-06T09:27:24.611Z,3
2019-01-06T09:32:27.084Z,2
2019-01-06T09:37:29.521Z,3
2019-01-06T09:42:32.022Z,3
2019-01-06T09:47:34.460Z,3
2019-01-06T09:52:36.891Z,3
2019-01-06T09:57:39.367Z,3
2019-01-06T10:02:41.824Z,3
2019-01-06T10:07:44.264Z,3
2019-01-06T10:12:46.729Z,3
2019-01-06T10:17:49.196Z,3
2019-01-06T10:22:51.639Z,4
2019-01-06T10:27:54.160Z,2
2019-01-06T10:32:56.559Z,3
2019-01-06T10:37:59.015Z,3
2019-01-06T10:43:01.462Z,3
2019-01-06T10:48:03.956Z,4
2019-01-06T10:53:06.375Z,3
2019-01-06T10:58:08.832Z,3
2019-01-06T11:03:11.321Z,2
2019-01-06T11:08:13.756Z,2
2019-01-06T11:13:16.259Z,4
2019-01-06T11:18:18.666Z,3
2019-01-06T11:23:21.133Z,2
2019-01-06T11:28:23.835Z,3
2019-01-06T11:33:26.052Z,3
2019-01-06T11:38:28.495Z,3
2019-01-06T11:43:30.949Z,3
2019-01-06T11:48:33.434Z,3
2019-01-06T11:53:35.860Z,3
2019-01-06T11:58:38.320Z,2
2019-01-06T12:03:40.785Z,3
2019-01-06T12:08:43.230Z,2
2019-01-06T12:13:45.691Z,3
2019-01-06T12:18:48.145Z,3
2019-01-06T12:23:50.648Z,2
2019-01-06T12:28:53.055Z,3
2019-01-06T12:33:55.606Z,3
2019-01-06T12:38:58.004Z,2
2019-01-06T12:44:00.425Z,3
2019-01-06T12:49:02.913Z,2
2019-01-06T12:54:05.352Z,2
2019-01-06T12:59:07.811Z,3
2019-01-06T13:04:10.256Z,4
2019-01-06T13:09:12.714Z,2
2019-01-06T13:14:15.196Z,2
2019-01-06T13:19:17.629Z,3
2019-01-06T13:24:20.096Z,3
2019-01-06T13:29:22.588Z,3
2019-01-06T13:34:24.999Z,3
2019-01-06T13:39:27.500Z,3
2019-01-06T13:44:29.923Z,3
2019-01-06T13:49:32.468Z,2
2019-01-06T13:54:34.847Z,2
2019-01-06T13:59:37.386Z,2
2019-01-06T14:04:41.608Z,3
2019-01-06T14:09:42.246Z,2
2019-01-06T14:14:44.672Z,3
2019-01-06T14:19:47.143Z,2
2019-01-06T14:24:49.584Z,3
2019-01-06T14:29:52.039Z,4
2019-01-06T14:34:54.494Z,4
2019-01-06T14:39:56.955Z,4
2019-01-06T14:44:59.413Z,4
2019-01-06T14:50:06.895Z,4
2019-01-06T14:55:04.333Z,3
2019-01-06T15:00:06.804Z,4
2019-01-06T15:05:09.250Z,4
2019-01-06T15:10:11.755Z,5
2019-01-06T15:15:14.159Z,5
2019-01-06T15:20:16.787Z,4
2019-01-06T15:25:19.085Z,4
2019-01-06T15:30:21.533Z,4
2019-01-06T15:35:23.999Z,4
2019-01-06T15:40:26.448Z,4
2019-01-06T15:45:28.939Z,5
2019-01-06T15:50:31.361Z,5
2019-01-06T15:55:33.810Z,5
2019-01-06T16:00:36.471Z,5
2019-01-06T16:05:38.748Z,5
2019-01-06T16:10:41.754Z,6
2019-01-06T16:15:43.640Z,7
2019-01-06T16:20:46.159Z,7
2019-01-06T16:25:48.557Z,8
2019-01-06T16:30:51.022Z,10
2019-01-06T16:35:53.496Z,11
2019-01-06T16:40:55.960Z,8
2019-01-06T16:45:58.388Z,8
2019-01-06T16:51:00.869Z,8
2019-01-06T16:56:03.328Z,8
2019-01-06T17:01:05.802Z,10
2019-01-06T17:06:08.261Z,10
2019-01-06T17:11:10.696Z,12
2019-01-06T17:16:13.127Z,13
2019-01-06T17:21:15.596Z,15
2019-01-06T17:26:18.037Z,14
2019-01-06T17:31:20.497Z,14
2019-01-06T17:36:23.000Z,12
2019-01-06T17:41:25.421Z,12
2019-01-06T17:46:27.872Z,12
2019-01-06T17:51:30.351Z,13
2019-01-06T17:56:32.812Z,13
2019-01-06T18:01:35.540Z,12
2019-01-06T18:06:38.831Z,12
2019-01-06T18:11:40.220Z,10
2019-01-06T18:16:42.645Z,9
2019-01-06T18:21:45.099Z,10
2019-01-06T18:26:47.621Z,13
2019-01-06T18:31:50.020Z,12
2019-01-06T18:36:52.537Z,12
2019-01-06T18:41:54.933Z,12
2019-01-06T18:46:57.389Z,12
2019-01-06T18:51:59.867Z,13
2019-01-06T18:57:02.365Z,13
2019-01-06T19:02:04.897Z,12
2019-01-06T19:07:07.219Z,13
2019-01-06T19:12:09.673Z,11
2019-01-06T19:17:12.143Z,10
2019-01-06T19:22:14.577Z,12
2019-01-06T19:27:17.127Z,11
2019-01-06T19:32:19.492Z,9
2019-01-06T19:37:21.957Z,10
2019-01-06T19:42:24.463Z,9
2019-01-06T19:47:26.886Z,9
2019-01-06T19:52:29.335Z,9
2019-01-06T19:57:32.066Z,8
2019-01-06T20:02:34.226Z,8
2019-01-06T20:07:36.688Z,8
2019-01-06T20:12:39.244Z,7
2019-01-06T20:17:41.629Z,8
2019-01-06T20:22:44.059Z,7
2019-01-06T20:27:46.609Z,6
2019-01-06T20:32:48.984Z,7
2019-01-06T20:37:51.440Z,6
2019-01-06T20:42:53.909Z,7
2019-01-06T20:47:56.347Z,7
2019-01-06T20:52:58.926Z,6
2019-01-06T20:58:02.390Z,6
2019-01-06T21:03:03.745Z,7
2019-01-06T21:08:06.198Z,5
2019-01-06T21:13:08.643Z,6
2019-01-06T21:18:11.097Z,8
2019-01-06T21:23:14.575Z,7
2019-01-06T21:28:16.024Z,10
2019-01-06T21:33:18.498Z,9
2019-01-06T21:38:20.930Z,10
2019-01-06T21:43:23.374Z,9
2019-01-06T21:48:25.836Z,9
2019-01-06T21:53:28.327Z,9
2019-01-06T21:58:30.738Z,10
2019-01-06T22:03:33.202Z,9
2019-01-06T22:08:35.667Z,9
2019-01-06T22:13:38.121Z,10
2019-01-06T22:18:40.588Z,10
2019-01-06T22:23:43.056Z,10
2019-01-06T22:28:45.489Z,9
2019-01-06T22:33:47.988Z,9
2019-01-06T22:38:50.413Z,8
2019-01-06T22:43:52.884Z,8
2019-01-06T22:48:55.336Z,7
2019-01-06T22:53:57.804Z,8
2019-01-06T22:59:00.235Z,6
2019-01-06T23:04:02.694Z,5
2019-01-06T23:09:05.158Z,6
2019-01-06T23:14:07.628Z,5
2019-01-06T23:19:10.084Z,4
2019-01-06T23:24:12.816Z,4
2019-01-06T23:29:14.972Z,5
2019-01-06T23:34:17.456Z,4
2019-01-06T23:39:19.889Z,4
2019-01-06T23:44:22.354Z,4
2019-01-06T23:49:24.807Z,3
2019-01-06T23:54:27.270Z,2
2019-01-06T23:59:29.717Z,2
